Time;durP1;ratioP1;P1;durP2;ratioP2;P2;SDS_P1;SDS_P2;PMS_P1;PMS_P2;Temp;Humidity;BMP_temperature;BMP_pressure;BME280_temperature;BME280_humidity;BME280_pressure;Samples;Min_cycle;Max_cycle;Signal;HPM_P1;HPM_P2
2021/01/12 00:02:09;;;;;;;19.07;11.27;;;5.40;99.90;;;;;;5072417;28;20200;-61
2021/01/12 00:04:35;;;;;;;18.98;12.60;;;5.50;99.90;;;;;;5073454;28;20227;-62
2021/01/12 00:07:00;;;;;;;16.00;11.13;;;5.60;99.90;;;;;;5073179;28;20537;-65
2021/01/12 00:09:26;;;;;;;15.20;10.30;;;5.50;99.90;;;;;;5073627;28;20206;-65
2021/01/12 00:11:54;;;;;;;14.97;10.40;;;5.60;99.90;;;;;;5074017;28;20181;-63
2021/01/12 00:14:32;;;;;;;14.15;11.07;;;5.60;99.90;;;;;;5073506;28;20512;-61
2021/01/12 00:16:59;;;;;;;17.48;12.10;;;5.60;99.90;;;;;;5073962;28;20180;-64
2021/01/12 00:19:25;;;;;;;13.15;10.63;;;5.60;99.90;;;;;;5073206;28;20180;-65
2021/01/12 00:21:50;;;;;;;12.60;9.93;;;5.60;99.90;;;;;;5074231;28;20184;-61
2021/01/12 00:24:16;;;;;;;12.70;8.97;;;5.60;99.90;;;;;;5073626;28;20511;-65
2021/01/12 00:26:41;;;;;;;13.80;10.10;;;5.60;99.90;;;;;;5073978;28;20177;-64
2021/01/12 00:29:07;;;;;;;14.73;11.07;;;5.70;99.90;;;;;;5074085;28;20181;-64
2021/01/12 00:31:36;;;;;;;16.47;11.87;;;5.70;99.90;;;;;;5074219;28;20176;-63
2021/01/12 00:34:02;;;;;;;16.40;11.27;;;5.70;99.90;;;;;;5074311;28;20494;-62
2021/01/12 00:36:27;;;;;;;16.00;11.80;;;5.70;99.90;;;;;;5074297;28;20267;-62
2021/01/12 00:38:53;;;;;;;16.07;10.70;;;5.70;99.90;;;;;;5073857;28;20613;-66
2021/01/12 00:41:18;;;;;;;15.07;10.90;;;5.70;99.90;;;;;;5073958;28;20208;-61
2021/01/12 00:43:44;;;;;;;17.80;11.80;;;5.80;99.90;;;;;;5073499;28;20219;-65
2021/01/12 00:46:09;;;;;;;18.80;12.80;;;5.80;99.90;;;;;;5074073;28;20188;-65
2021/01/12 00:48:35;;;;;;;17.80;12.23;;;5.80;99.90;;;;;;5072857;28;20168;-65
2021/01/12 00:51:00;;;;;;;12.83;9.13;;;5.80;99.90;;;;;;5072745;28;20180;-65
2021/01/12 00:53:26;;;;;;;15.40;11.70;;;5.90;99.90;;;;;;5073676;28;20185;-65
2021/01/12 00:55:51;;;;;;;12.67;9.37;;;5.90;99.90;;;;;;5073773;28;20621;-65
2021/01/12 00:58:17;;;;;;;12.97;10.23;;;5.90;99.90;;;;;;5073643;28;20184;-65
2021/01/12 01:00:42;;;;;;;13.47;10.73;;;6.00;99.90;;;;;;5073609;28;20204;-64
2021/01/12 01:03:08;;;;;;;16.53;10.70;;;6.10;99.90;;;;;;5073736;28;20201;-62
2021/01/12 01:05:35;;;;;;;12.97;9.50;;;6.10;99.90;;;;;;5073949;28;20187;-63
2021/01/12 01:08:02;;;;;;;14.88;10.25;;;6.10;99.90;;;;;;5073732;28;20252;-62
2021/01/12 01:10:27;;;;;;;13.73;10.38;;;6.20;99.90;;;;;;5074133;28;20180;-66
2021/01/12 01:12:53;;;;;;;12.47;8.80;;;6.20;99.90;;;;;;5093267;28;20250;-66
2021/01/12 01:15:18;;;;;;;14.10;10.43;;;6.20;99.90;;;;;;5076109;28;20190;-66
2021/01/12 01:17:44;;;;;;;12.77;9.27;;;6.30;99.90;;;;;;5077666;28;20195;-62
2021/01/12 01:20:10;;;;;;;13.30;9.13;;;6.30;99.90;;;;;;5077573;28;20260;-66
2021/01/12 01:22:36;;;;;;;9.98;6.63;;;6.20;99.90;;;;;;5077639;28;20551;-64
2021/01/12 01:25:01;;;;;;;12.17;8.40;;;6.30;99.90;;;;;;5077885;28;20244;-66
2021/01/12 01:27:27;;;;;;;23.20;12.60;;;6.30;99.90;;;;;;5077323;28;20230;-61
2021/01/12 01:29:52;;;;;;;12.10;9.67;;;6.30;99.90;;;;;;5077442;28;20642;-61
2021/01/12 01:32:18;;;;;;;12.30;8.90;;;6.30;99.90;;;;;;5077580;28;20592;-61
2021/01/12 01:34:43;;;;;;;11.53;8.50;;;6.30;99.90;;;;;;5076963;28;20181;-61
2021/01/12 01:37:09;;;;;;;10.87;7.17;;;6.50;99.90;;;;;;5077386;28;20169;-61
2021/01/12 01:39:35;;;;;;;8.90;7.00;;;6.40;99.90;;;;;;5077448;28;20594;-60
2021/01/12 01:42:02;;;;;;;11.32;8.48;;;6.40;99.90;;;;;;5077153;28;20204;-65
2021/01/12 01:44:28;;;;;;;11.10;8.30;;;6.40;99.90;;;;;;5075871;28;20211;-64
2021/01/12 01:46:55;;;;;;;9.38;7.80;;;6.30;99.90;;;;;;5077289;28;20673;-62
2021/01/12 01:49:20;;;;;;;8.70;6.75;;;6.40;99.90;;;;;;5077131;28;20176;-60
2021/01/12 01:51:50;;;;;;;11.70;8.23;;;6.30;99.90;;;;;;5076789;28;20601;-60
2021/01/12 01:54:16;;;;;;;10.15;7.85;;;6.40;99.90;;;;;;5077460;28;20204;-64
2021/01/12 01:56:41;;;;;;;10.30;7.37;;;6.40;99.90;;;;;;5077100;28;20199;-64
2021/01/12 01:59:07;;;;;;;8.87;7.60;;;6.40;99.90;;;;;;5076831;28;20176;-61
2021/01/12 02:01:35;;;;;;;10.03;6.87;;;6.40;99.90;;;;;;5076005;28;20200;-64
2021/01/12 02:04:19;;;;;;;10.20;8.07;;;6.50;99.90;;;;;;5076709;28;20685;-65
2021/01/12 02:06:48;;;;;;;7.35;5.80;;;6.50;99.90;;;;;;5077013;28;20184;-66
2021/01/12 02:09:35;;;;;;;8.38;6.22;;;6.50;99.90;;;;;;5092492;28;20177;-61
2021/01/12 02:12:03;;;;;;;8.48;6.65;;;6.50;99.90;;;;;;5075756;28;20231;-64
2021/01/12 02:14:33;;;;;;;9.15;7.35;;;6.50;99.90;;;;;;5076764;28;20267;-64
2021/01/12 02:17:01;;;;;;;8.18;5.72;;;6.50;99.90;;;;;;5076431;28;20180;-62
2021/01/12 02:19:28;;;;;;;9.05;6.72;;;6.50;99.90;;;;;;5076411;28;20601;-62
2021/01/12 02:22:02;;;;;;;9.57;7.20;;;6.50;99.90;;;;;;5075243;28;20185;-61
2021/01/12 02:24:30;;;;;;;7.78;6.13;;;6.50;99.90;;;;;;5076151;28;20279;-61
2021/01/12 02:26:55;;;;;;;11.77;8.32;;;6.50;99.90;;;;;;5076315;28;20763;-62
2021/01/12 02:29:22;;;;;;;11.00;7.77;;;6.50;99.90;;;;;;5076237;28;20196;-62
2021/01/12 02:31:48;;;;;;;10.93;7.30;;;6.50;99.90;;;;;;5076341;28;20177;-66
2021/01/12 02:34:17;;;;;;;9.17;7.00;;;6.50;99.90;;;;;;5076033;28;20181;-66
2021/01/12 02:36:44;;;;;;;8.23;7.30;;;6.50;99.90;;;;;;5075092;28;20810;-64
2021/01/12 02:39:11;;;;;;;8.52;7.40;;;6.50;99.90;;;;;;5075944;28;20177;-62
2021/01/12 02:41:37;;;;;;;8.73;7.75;;;6.50;99.90;;;;;;5074859;28;20185;-65
2021/01/12 02:44:03;;;;;;;9.07;7.77;;;6.60;99.90;;;;;;5075684;28;20207;-66
2021/01/12 02:46:30;;;;;;;9.40;6.90;;;6.60;99.90;;;;;;5074942;28;20172;-65
2021/01/12 02:48:55;;;;;;;11.35;8.40;;;6.50;99.90;;;;;;5075867;28;20172;-65
2021/01/12 02:51:21;;;;;;;9.33;7.70;;;6.50;99.90;;;;;;5074925;28;20180;-63
2021/01/12 02:53:46;;;;;;;11.17;8.40;;;6.60;99.90;;;;;;5076026;28;20196;-65
2021/01/12 02:56:12;;;;;;;9.90;7.50;;;6.60;99.90;;;;;;5074658;28;20499;-62
2021/01/12 02:58:37;;;;;;;11.17;7.20;;;6.60;99.90;;;;;;5075719;28;20216;-64
2021/01/12 03:01:04;;;;;;;10.20;7.60;;;6.60;99.90;;;;;;5075618;28;20265;-64
2021/01/12 03:03:30;;;;;;;7.05;5.63;;;6.60;99.90;;;;;;5075704;28;20520;-65
2021/01/12 03:05:56;;;;;;;8.27;6.60;;;6.60;99.90;;;;;;5075723;28;20177;-61
2021/01/12 03:08:22;;;;;;;9.40;7.00;;;6.60;99.90;;;;;;5075488;28;20419;-61
2021/01/12 03:10:48;;;;;;;9.23;7.30;;;6.60;99.90;;;;;;5075714;28;20423;-61
2021/01/12 03:13:17;;;;;;;9.80;7.80;;;6.60;99.90;;;;;;5075512;28;20199;-61
2021/01/12 03:15:42;;;;;;;8.10;7.25;;;6.70;99.90;;;;;;5075565;28;20227;-65
2021/01/12 03:18:08;;;;;;;9.07;7.17;;;6.70;99.90;;;;;;5075591;28;20180;-65
2021/01/12 03:20:34;;;;;;;8.60;6.33;;;6.70;99.90;;;;;;5074316;28;20188;-67
2021/01/12 03:23:01;;;;;;;7.60;6.30;;;6.70;99.90;;;;;;5075322;28;20469;-61
2021/01/12 03:25:27;;;;;;;7.30;5.90;;;6.80;99.90;;;;;;5074985;28;20561;-65
2021/01/12 03:27:53;;;;;;;8.05;6.55;;;6.80;99.90;;;;;;5073989;28;20176;-64
2021/01/12 03:30:19;;;;;;;6.82;6.10;;;6.80;99.90;;;;;;5075058;28;20632;-64
2021/01/12 03:32:45;;;;;;;9.13;6.97;;;6.80;99.90;;;;;;5073645;28;20250;-65
2021/01/12 03:35:11;;;;;;;9.77;8.03;;;6.80;99.90;;;;;;5074899;28;20565;-64
2021/01/12 03:37:37;;;;;;;6.70;5.82;;;6.80;99.90;;;;;;5074176;28;20185;-66
2021/01/12 03:40:07;;;;;;;7.25;6.30;;;6.70;99.90;;;;;;5073970;28;20639;-66
2021/01/12 03:42:35;;;;;;;7.50;6.40;;;6.70;99.90;;;;;;5073428;28;20196;-62
2021/01/12 03:45:01;;;;;;;9.32;7.07;;;6.80;99.90;;;;;;5074883;28;20173;-65
2021/01/12 03:47:26;;;;;;;8.93;7.40;;;6.80;99.90;;;;;;5075036;28;20488;-65
2021/01/12 03:49:52;;;;;;;6.97;5.93;;;6.80;99.90;;;;;;5075005;28;20187;-66
2021/01/12 03:52:18;;;;;;;7.37;5.50;;;6.80;99.90;;;;;;5074727;28;20172;-61
2021/01/12 03:54:44;;;;;;;6.57;5.67;;;6.70;99.90;;;;;;5074597;28;20887;-61
2021/01/12 03:57:10;;;;;;;8.97;6.70;;;6.70;99.90;;;;;;5074584;28;20589;-61
2021/01/12 03:59:35;;;;;;;6.87;5.13;;;6.70;99.90;;;;;;5073529;28;20647;-61
2021/01/12 04:02:01;;;;;;;7.33;6.53;;;6.70;99.90;;;;;;5074702;28;20176;-62
2021/01/12 04:04:27;;;;;;;7.10;6.40;;;6.70;99.90;;;;;;5073065;28;20462;-62
2021/01/12 04:06:55;;;;;;;8.33;6.03;;;6.70;99.90;;;;;;5074442;28;20180;-63
2021/01/12 04:09:21;;;;;;;8.63;6.60;;;6.70;99.90;;;;;;5073650;28;20205;-69
2021/01/12 04:11:47;;;;;;;5.85;4.82;;;6.70;99.90;;;;;;5074556;28;20177;-67
2021/01/12 04:14:15;;;;;;;5.53;5.03;;;6.70;99.90;;;;;;5074360;28;20180;-61
2021/01/12 04:16:40;;;;;;;8.30;5.68;;;6.80;99.90;;;;;;5073068;28;20185;-61
2021/01/12 04:19:06;;;;;;;5.60;5.00;;;6.80;99.90;;;;;;5074240;28;20595;-61
2021/01/12 04:21:31;;;;;;;5.57;4.43;;;6.70;99.90;;;;;;5074186;28;20219;-63
2021/01/12 04:23:57;;;;;;;5.20;4.70;;;6.70;99.90;;;;;;5074146;28;20346;-64
2021/01/12 04:26:22;;;;;;;5.67;4.07;;;6.80;99.90;;;;;;5073047;28;20268;-64
2021/01/12 04:28:48;;;;;;;5.00;3.90;;;6.90;99.90;;;;;;5073137;28;20216;-64
2021/01/12 04:31:13;;;;;;;5.43;4.60;;;6.80;99.90;;;;;;5073064;28;20180;-64
2021/01/12 04:33:39;;;;;;;6.97;5.20;;;6.80;99.90;;;;;;5073926;28;20176;-64
2021/01/12 04:36:05;;;;;;;4.90;4.40;;;6.90;99.90;;;;;;5074108;28;20259;-64
2021/01/12 04:38:30;;;;;;;6.07;4.40;;;7.00;99.90;;;;;;5074122;28;20176;-61
2021/01/12 04:40:56;;;;;;;5.87;4.60;;;7.10;99.90;;;;;;5072955;28;20525;-61
2021/01/12 04:43:23;;;;;;;5.37;3.60;;;7.00;99.90;;;;;;5072930;28;20208;-64
2021/01/12 04:45:48;;;;;;;7.75;5.50;;;6.90;99.90;;;;;;5075831;28;20183;-61
2021/01/12 04:48:14;;;;;;;7.27;6.07;;;7.00;99.90;;;;;;5078167;28;20176;-61
2021/01/12 04:50:39;;;;;;;5.53;5.03;;;6.90;99.90;;;;;;5077189;28;20507;-61
2021/01/12 04:53:05;;;;;;;6.90;6.03;;;7.00;99.90;;;;;;5076987;28;20222;-61
2021/01/12 04:55:30;;;;;;;6.70;5.53;;;7.10;99.90;;;;;;5076852;28;20218;-61
2021/01/12 04:57:56;;;;;;;6.20;5.10;;;7.00;99.90;;;;;;5077940;28;20226;-62
2021/01/12 05:00:28;;;;;;;7.60;6.10;;;6.90;99.90;;;;;;5076819;28;20226;-66
2021/01/12 05:03:01;;;;;;;7.53;5.47;;;7.00;99.90;;;;;;5077460;28;20295;-66
2021/01/12 05:05:28;;;;;;;6.75;5.53;;;6.90;99.90;;;;;;5077611;28;20172;-65
2021/01/12 05:08:02;;;;;;;6.82;5.93;;;6.90;99.90;;;;;;5076695;28;20246;-65
2021/01/12 05:10:30;;;;;;;6.75;6.05;;;6.90;99.90;;;;;;5077677;28;20173;-66
2021/01/12 05:12:58;;;;;;;7.25;6.30;;;6.90;99.90;;;;;;5077298;28;20180;-66
2021/01/12 05:15:25;;;;;;;7.57;5.68;;;6.90;99.90;;;;;;5076015;28;20189;-65
2021/01/12 05:17:54;;;;;;;6.60;5.47;;;6.80;99.90;;;;;;5077226;28;20180;-65
2021/01/12 05:20:25;;;;;;;5.53;4.10;;;6.90;99.90;;;;;;5076924;28;20177;-66
2021/01/12 05:23:04;;;;;;;5.88;4.47;;;6.70;99.90;;;;;;5076981;28;20280;-65
2021/01/12 05:25:36;;;;;;;4.68;4.00;;;6.70;99.90;;;;;;5076830;28;20173;-65
2021/01/12 05:28:03;;;;;;;7.25;4.45;;;6.80;99.90;;;;;;5077522;28;20490;-65
2021/01/12 05:30:29;;;;;;;4.53;4.03;;;6.80;99.90;;;;;;5076699;28;20282;-65
2021/01/12 05:32:56;;;;;;;5.47;4.37;;;6.70;99.90;;;;;;5076946;28;20649;-65
2021/01/12 05:35:25;;;;;;;4.10;3.00;;;6.70;99.90;;;;;;5076804;28;20279;-66
2021/01/12 05:37:54;;;;;;;3.20;2.53;;;6.50;99.90;;;;;;5075988;28;20187;-66
2021/01/12 05:40:24;;;;;;;2.55;2.35;;;6.40;99.90;;;;;;5076596;28;20200;-66
2021/01/12 05:42:49;;;;;;;3.47;2.58;;;6.20;99.90;;;;;;5076526;28;20208;-66
2021/01/12 05:45:15;;;;;;;3.67;2.83;;;6.30;99.90;;;;;;5076432;28;20227;-66
2021/01/12 05:47:40;;;;;;;3.67;2.63;;;6.40;99.90;;;;;;5076568;28;20207;-66
2021/01/12 05:50:15;;;;;;;5.60;2.80;;;6.40;99.90;;;;;;5076493;28;20198;-66
2021/01/12 05:52:59;;;;;;;3.45;2.50;;;6.40;99.90;;;;;;5076333;28;20168;-66
2021/01/12 05:55:24;;;;;;;3.95;3.00;;;6.50;99.90;;;;;;5076125;28;20322;-66
2021/01/12 05:57:59;;;;;;;3.70;2.27;;;6.40;99.90;;;;;;5076138;28;20649;-66
2021/01/12 06:00:25;;;;;;;5.15;2.97;;;6.60;99.90;;;;;;5075957;28;20443;-66
2021/01/12 06:02:55;;;;;;;5.05;2.78;;;6.70;99.90;;;;;;5075963;28;20211;-66
2021/01/12 06:05:21;;;;;;;2.92;1.30;;;6.60;99.90;;;;;;5074803;28;20215;-66
2021/01/12 06:07:47;;;;;;;3.10;2.33;;;6.20;99.90;;;;;;5075977;28;20656;-66
2021/01/12 06:10:17;;;;;;;1.57;1.47;;;6.20;99.90;;;;;;5076039;28;20217;-66
2021/01/12 06:12:51;;;;;;;4.15;1.55;;;6.30;99.90;;;;;;5076568;28;20192;-66
2021/01/12 06:15:17;;;;;;;3.63;1.80;;;6.00;99.90;;;;;;5076140;28;20263;-67
2021/01/12 06:17:44;;;;;;;3.10;2.78;;;6.00;99.90;;;;;;5076176;28;20169;-65
2021/01/12 06:20:16;;;;;;;6.45;3.63;;;6.20;99.90;;;;;;5076127;28;20617;-65
2021/01/12 06:22:47;;;;;;;6.55;2.88;;;6.10;99.90;;;;;;5076097;28;20176;-66
2021/01/12 06:25:15;;;;;;;5.43;3.05;;;6.10;99.90;;;;;;5075923;28;20173;-66
2021/01/12 06:27:41;;;;;;;1.63;1.35;;;6.20;99.90;;;;;;5074961;28;20207;-66
2021/01/12 06:30:08;;;;;;;3.00;1.43;;;5.80;99.90;;;;;;5076107;28;20492;-66
2021/01/12 06:32:35;;;;;;;1.25;0.95;;;5.00;99.90;;;;;;5075006;28;20188;-66
2021/01/12 06:35:10;;;;;;;2.08;0.80;;;4.60;99.90;;;;;;5075478;28;20179;-66
2021/01/12 06:37:43;;;;;;;1.70;0.40;;;4.40;99.90;;;;;;5075841;28;20173;-66
2021/01/12 06:40:11;;;;;;;0.77;0.50;;;4.20;99.90;;;;;;5074638;28;20185;-66
2021/01/12 06:42:38;;;;;;;2.97;0.80;;;4.20;99.90;;;;;;5074489;28;20552;-66
2021/01/12 06:45:06;;;;;;;1.83;0.30;;;4.20;99.90;;;;;;5074133;28;20263;-66
2021/01/12 06:47:32;;;;;;;0.60;0.60;;;4.10;99.90;;;;;;5075327;28;20640;-66
2021/01/12 06:50:03;;;;;;;0.73;0.70;;;4.10;99.90;;;;;;5075388;28;20606;-67
2021/01/12 06:52:29;;;;;;;3.70;0.60;;;3.80;99.90;;;;;;5075378;28;20176;-67
2021/01/12 06:55:05;;;;;;;0.50;0.40;;;3.70;99.90;;;;;;5074723;28;20617;-66
2021/01/12 06:57:32;;;;;;;1.92;0.63;;;3.60;99.90;;;;;;5073617;28;20191;-66
2021/01/12 06:59:58;;;;;;;1.00;0.50;;;3.50;99.90;;;;;;5074370;28;20584;-66
2021/01/12 07:02:25;;;;;;;1.47;0.60;;;3.60;99.90;;;;;;5073774;28;20181;-65
2021/01/12 07:05:14;;;;;;;1.23;0.57;;;3.70;99.90;;;;;;5073388;28;20281;-66
2021/01/12 07:07:47;;;;;;;2.25;0.80;;;3.70;99.90;;;;;;5074198;28;20173;-62
2021/01/12 07:10:15;;;;;;;1.23;0.63;;;3.60;99.90;;;;;;5074899;28;20211;-62
2021/01/12 07:12:41;;;;;;;3.33;0.68;;;3.50;99.90;;;;;;5074652;28;20179;-62
2021/01/12 07:15:21;;;;;;;2.05;1.83;;;3.60;99.90;;;;;;5074124;28;20505;-62
2021/01/12 07:17:47;;;;;;;4.32;1.10;;;3.70;99.90;;;;;;5075200;28;20180;-62
2021/01/12 07:20:18;;;;;;;7.25;1.40;;;3.50;99.90;;;;;;5074755;28;20598;-61
2021/01/12 07:23:04;;;;;;;0.68;0.60;;;3.50;99.90;;;;;;5074814;28;20606;-61
2021/01/12 07:25:34;;;;;;;3.13;0.82;;;3.60;99.90;;;;;;5074596;28;20199;-61
2021/01/12 07:28:20;;;;;;;0.77;0.57;;;3.50;99.90;;;;;;5074656;28;20177;-61
2021/01/12 07:30:50;;;;;;;4.40;1.67;;;3.50;75.00;;;;;;5074649;28;20172;-61
2021/01/12 07:33:23;;;;;;;4.57;2.22;;;3.80;62.20;;;;;;5074089;28;20176;-62
2021/01/12 07:35:53;;;;;;;4.25;1.70;;;3.90;58.30;;;;;;5074374;28;20463;-61
2021/01/12 07:38:25;;;;;;;2.65;2.03;;;3.90;27.80;;;;;;5074733;28;20184;-63
2021/01/12 07:40:51;;;;;;;11.55;2.20;;;3.90;12.40;;;;;;5074647;28;20215;-64
2021/01/12 07:43:26;;;;;;;2.88;1.42;;;4.20;19.70;;;;;;5074142;28;20208;-64
2021/01/12 07:45:54;;;;;;;7.45;3.35;;;4.40;12.70;;;;;;5073576;28;20176;-67
2021/01/12 07:48:23;;;;;;;3.58;0.77;;;4.70;1.00;;;;;;5074545;28;20219;-67
2021/01/12 07:50:51;;;;;;;1.60;0.93;;;4.50;1.00;;;;;;5073637;28;20263;-67
2021/01/12 07:53:17;;;;;;;4.00;1.10;;;4.70;1.00;;;;;;5073972;28;20187;-66
2021/01/12 07:55:45;;;;;;;2.50;1.30;;;4.70;1.00;;;;;;5075007;28;20517;-64
2021/01/12 07:58:17;;;;;;;3.80;1.20;;;4.80;1.00;;;;;;5074655;28;20507;-67
2021/01/12 08:00:42;;;;;;;2.70;0.90;;;5.00;1.00;;;;;;5073889;28;20196;-63
2021/01/12 08:03:08;;;;;;;2.40;1.17;;;5.10;1.00;;;;;;5073617;28;20227;-62
2021/01/12 08:05:34;;;;;;;3.10;1.20;;;5.30;1.00;;;;;;5073809;28;20415;-63
2021/01/12 08:08:10;;;;;;;2.83;1.63;;;5.30;1.00;;;;;;5073754;28;20601;-62
2021/01/12 08:10:37;;;;;;;3.45;1.30;;;5.10;1.00;;;;;;5073674;28;20180;-62
2021/01/12 08:13:10;;;;;;;6.78;1.15;;;5.20;1.00;;;;;;5073419;28;20222;-62
2021/01/12 08:15:37;;;;;;;2.53;1.10;;;5.20;1.00;;;;;;5073901;28;20629;-62
2021/01/12 08:18:10;;;;;;;2.90;1.08;;;5.10;1.00;;;;;;5073690;28;20172;-62
2021/01/12 08:20:37;;;;;;;3.90;0.85;;;5.10;1.00;;;;;;5072970;28;20181;-62
2021/01/12 08:23:02;;;;;;;4.40;0.95;;;5.10;1.00;;;;;;5073334;28;20200;-62
2021/01/12 08:25:28;;;;;;;2.40;0.90;;;5.20;1.00;;;;;;5073435;28;20501;-62
2021/01/12 08:27:56;;;;;;;1.80;0.83;;;5.10;1.00;;;;;;5073566;28;20212;-62
2021/01/12 08:30:29;;;;;;;2.45;0.80;;;5.00;1.00;;;;;;5073499;28;20200;-62
2021/01/12 08:33:06;;;;;;;2.67;1.05;;;4.90;1.00;;;;;;5073686;28;20176;-62
2021/01/12 08:35:33;;;;;;;2.00;0.98;;;4.90;1.00;;;;;;5073659;28;20249;-62
2021/01/12 08:38:00;;;;;;;5.47;0.90;;;4.90;1.00;;;;;;5073095;28;20185;-63
2021/01/12 08:40:31;;;;;;;2.95;0.70;;;4.80;1.00;;;;;;5073123;28;20181;-62
2021/01/12 08:42:59;;;;;;;6.20;0.90;;;4.70;1.00;;;;;;5072060;28;20649;-62
2021/01/12 08:45:25;;;;;;;3.10;1.40;;;4.80;1.00;;;;;;5073346;28;20510;-65
2021/01/12 08:47:51;;;;;;;3.25;1.65;;;4.80;1.00;;;;;;5073542;28;20187;-63
2021/01/12 08:50:18;;;;;;;2.53;1.17;;;4.60;1.00;;;;;;5073561;28;20172;-62
2021/01/12 08:52:50;;;;;;;3.40;2.55;;;4.60;1.00;;;;;;5072092;28;20926;-62
2021/01/12 08:55:18;;;;;;;2.53;1.17;;;4.60;1.00;;;;;;5073810;28;20239;-61
2021/01/12 08:58:04;;;;;;;4.82;1.25;;;4.50;1.00;;;;;;5073408;28;20181;-62
2021/01/12 09:00:32;;;;;;;6.97;1.98;;;4.40;1.00;;;;;;5072277;28;20218;-62
2021/01/12 09:02:58;;;;;;;10.40;3.42;;;4.40;1.00;;;;;;5073038;28;20698;-63
2021/01/12 09:05:25;;;;;;;2.08;1.40;;;4.50;1.00;;;;;;5073538;28;20507;-61
2021/01/12 09:08:03;;;;;;;2.72;1.05;;;4.80;1.00;;;;;;5073947;28;20173;-60
2021/01/12 09:10:28;;;;;;;5.45;1.08;;;4.70;1.00;;;;;;5072660;28;20168;-60
2021/01/12 09:12:55;;;;;;;3.83;1.13;;;4.70;1.00;;;;;;5070639;28;20184;-60
2021/01/12 09:15:32;;;;;;;4.82;1.50;;;4.70;1.00;;;;;;5072895;28;20176;-62
2021/01/12 09:18:07;;;;;;;4.07;1.90;;;4.70;1.00;;;;;;5072935;28;20188;-62
2021/01/12 09:20:38;;;;;;;3.67;1.10;;;4.80;1.00;;;;;;5072908;28;20625;-64
2021/01/12 09:23:08;;;;;;;3.30;1.80;;;4.70;1.00;;;;;;5072710;28;20212;-63
2021/01/12 09:25:34;;;;;;;2.55;1.00;;;4.60;1.00;;;;;;5072997;28;20188;-63
2021/01/12 09:28:14;;;;;;;2.20;1.30;;;4.60;1.00;;;;;;5072656;28;20685;-63
2021/01/12 09:30:41;;;;;;;2.60;1.48;;;4.70;1.00;;;;;;5073041;28;20522;-65
2021/01/12 09:33:07;;;;;;;3.40;1.27;;;4.50;1.00;;;;;;5075213;28;20181;-63
2021/01/12 09:35:32;;;;;;;3.40;1.97;;;4.40;1.00;;;;;;5076850;28;20511;-64
2021/01/12 09:38:00;;;;;;;3.77;1.97;;;4.40;1.00;;;;;;5077006;28;20272;-61
2021/01/12 09:40:26;;;;;;;5.47;1.30;;;4.20;1.00;;;;;;5076636;28;20891;-60
2021/01/12 09:42:52;;;;;;;2.42;1.30;;;4.20;1.00;;;;;;5076671;28;20309;-63
2021/01/12 09:45:18;;;;;;;2.83;1.00;;;4.20;1.00;;;;;;5069054;28;20189;-62
2021/01/12 09:47:45;;;;;;;8.80;1.37;;;4.20;1.00;;;;;;5076582;28;20206;-62
2021/01/12 09:50:11;;;;;;;1.77;1.27;;;4.10;1.00;;;;;;5077126;28;20434;-63
2021/01/12 09:52:37;;;;;;;5.28;1.58;;;4.10;1.00;;;;;;5076835;28;20176;-61
2021/01/12 09:55:03;;;;;;;7.83;1.43;;;4.00;1.00;;;;;;5075202;28;20188;-64
2021/01/12 09:57:29;;;;;;;6.40;1.90;;;4.10;1.00;;;;;;5076996;28;20458;-61
2021/01/12 09:59:54;;;;;;;3.63;1.80;;;4.00;1.00;;;;;;5076876;28;20203;-62
2021/01/12 10:02:20;;;;;;;3.27;1.43;;;4.10;1.00;;;;;;5077999;28;20613;-61
2021/01/12 10:04:46;;;;;;;3.93;1.43;;;4.20;1.00;;;;;;5076407;28;20205;-62
2021/01/12 10:07:11;;;;;;;5.13;1.90;;;4.20;1.00;;;;;;5076655;28;20172;-60
2021/01/12 10:09:37;;;;;;;4.07;1.17;;;4.20;1.00;;;;;;5075731;28;20176;-61
2021/01/12 10:12:04;;;;;;;5.10;1.80;;;4.20;1.00;;;;;;5075927;28;20173;-60
2021/01/12 10:14:30;;;;;;;5.97;1.77;;;4.30;1.00;;;;;;5076673;28;20212;-60
2021/01/12 10:16:55;;;;;;;3.37;1.40;;;4.30;1.00;;;;;;5076985;28;20679;-60
2021/01/12 10:19:21;;;;;;;4.60;1.80;;;4.40;1.00;;;;;;5076611;28;20185;-59
2021/01/12 10:21:50;;;;;;;2.87;1.70;;;4.60;1.00;;;;;;5076248;28;20460;-61
2021/01/12 10:24:15;;;;;;;2.78;2.05;;;4.50;1.00;;;;;;5076473;28;20261;-62
2021/01/12 10:26:43;;;;;;;3.30;1.80;;;4.60;1.00;;;;;;5076425;28;20545;-62
2021/01/12 10:29:10;;;;;;;4.15;1.60;;;4.60;1.00;;;;;;5076316;28;20173;-60
2021/01/12 10:31:37;;;;;;;2.00;1.27;;;4.60;1.00;;;;;;5076322;28;20501;-60
2021/01/12 10:34:03;;;;;;;2.67;1.75;;;4.60;1.00;;;;;;5076387;28;20552;-62
2021/01/12 10:36:29;;;;;;;3.37;1.53;;;4.70;1.00;;;;;;5075447;28;20226;-62
2021/01/12 10:38:54;;;;;;;3.00;1.47;;;4.80;1.00;;;;;;5075320;28;20185;-62
2021/01/12 10:41:20;;;;;;;10.77;1.60;;;4.70;1.00;;;;;;5076391;28;20225;-62
2021/01/12 10:43:49;;;;;;;1.60;0.70;;;4.80;1.00;;;;;;5074551;28;20230;-64
2021/01/12 10:46:16;;;;;;;3.05;1.50;;;4.60;99.90;;;;;;5076227;28;20248;-62
2021/01/12 10:48:41;;;;;;;3.35;0.95;;;4.60;99.90;;;;;;5076684;28;20667;-62
2021/01/12 10:51:07;;;;;;;4.80;1.50;;;4.60;99.90;;;;;;5076653;28;20181;-62
2021/01/12 10:53:33;;;;;;;6.43;1.33;;;4.50;99.90;;;;;;5075510;28;20181;-61
2021/01/12 10:56:01;;;;;;;1.83;1.17;;;4.60;99.90;;;;;;5075625;28;20442;-63
2021/01/12 10:58:27;;;;;;;4.75;1.45;;;4.80;99.90;;;;;;5075062;28;20271;-63
2021/01/12 11:00:53;;;;;;;2.80;1.10;;;4.90;99.90;;;;;;5075492;28;20231;-65
2021/01/12 11:03:19;;;;;;;5.90;1.60;;;4.90;99.90;;;;;;5075193;28;20458;-65
2021/01/12 11:05:46;;;;;;;5.70;1.48;;;5.00;99.90;;;;;;5076145;28;20717;-61
2021/01/12 11:08:12;;;;;;;5.70;1.17;;;5.00;17.20;;;;;;5075582;28;20495;-65
2021/01/12 11:10:38;;;;;;;2.08;1.15;;;4.90;1.00;;;;;;5075739;28;20695;-66
2021/01/12 11:13:04;;;;;;;3.90;1.50;;;4.80;1.00;;;;;;5075105;28;20378;-65
2021/01/12 11:15:30;;;;;;;10.80;1.98;;;4.80;1.00;;;;;;5075075;28;20183;-61
2021/01/12 11:17:56;;;;;;;3.33;0.97;;;5.10;1.00;;;;;;5075101;28;20181;-65
2021/01/12 11:20:22;;;;;;;2.50;1.70;;;5.00;99.90;;;;;;5075206;28;20732;-62
2021/01/12 11:22:48;;;;;;;2.97;0.93;;;5.10;99.90;;;;;;5074828;28;20188;-62
2021/01/12 11:25:14;;;;;;;6.13;1.70;;;5.00;1.00;;;;;;5074857;28;20593;-61
2021/01/12 11:27:40;;;;;;;4.65;1.20;;;5.00;99.90;;;;;;5074810;28;20181;-62
2021/01/12 11:30:08;;;;;;;10.63;1.70;;;5.20;99.90;;;;;;5075221;28;20230;-61
2021/01/12 11:32:34;;;;;;;1.73;1.10;;;5.30;1.00;;;;;;5073397;28;20192;-61
2021/01/12 11:35:01;;;;;;;2.22;1.30;;;5.40;99.90;;;;;;5074543;28;20180;-60
2021/01/12 11:37:29;;;;;;;3.42;1.25;;;5.50;99.90;;;;;;5074780;28;20617;-60
2021/01/12 11:39:57;;;;;;;0.70;0.70;;;5.30;99.90;;;;;;5074509;28;20184;-62
2021/01/12 11:42:23;;;;;;;7.43;1.15;;;5.30;99.90;;;;;;5074469;28;20185;-63
2021/01/12 11:44:49;;;;;;;3.83;1.47;;;5.20;99.90;;;;;;5073601;28;20314;-63
2021/01/12 11:47:15;;;;;;;3.40;0.90;;;5.30;1.00;;;;;;5074216;28;20423;-61
2021/01/12 11:49:40;;;;;;;2.60;1.20;;;5.40;99.90;;;;;;5074184;28;20257;-61
2021/01/12 11:52:07;;;;;;;2.47;1.77;;;5.40;1.00;;;;;;5074539;28;20609;-63
2021/01/12 11:54:34;;;;;;;3.10;0.75;;;5.50;99.90;;;;;;5073748;28;20181;-61
2021/01/12 11:57:00;;;;;;;6.88;0.90;;;5.50;1.00;;;;;;5074040;28;20515;-62
2021/01/12 11:59:27;;;;;;;4.45;1.05;;;5.40;1.00;;;;;;5074241;28;20173;-62
2021/01/12 12:01:54;;;;;;;4.45;1.20;;;5.30;1.00;;;;;;5073936;28;20207;-62
2021/01/12 12:04:22;;;;;;;7.53;0.85;;;5.40;1.00;;;;;;5073818;28;20219;-62
2021/01/12 12:06:49;;;;;;;2.05;0.80;;;5.40;1.00;;;;;;5073825;28;20177;-61
2021/01/12 12:09:15;;;;;;;2.45;0.98;;;5.50;99.90;;;;;;5073844;28;20564;-63
2021/01/12 12:11:41;;;;;;;9.17;2.20;;;5.70;99.90;;;;;;5073486;28;20259;-62
2021/01/12 12:14:08;;;;;;;6.93;1.40;;;5.80;99.90;;;;;;5073665;28;20260;-62
2021/01/12 12:16:35;;;;;;;4.18;0.80;;;5.80;1.00;;;;;;5073872;28;20445;-62
2021/01/12 12:19:01;;;;;;;1.15;0.60;;;5.80;1.00;;;;;;5074228;28;20203;-63
2021/01/12 12:21:27;;;;;;;3.17;0.97;;;5.90;1.00;;;;;;5073521;28;20622;-62
2021/01/12 12:23:53;;;;;;;3.13;1.10;;;5.90;1.00;;;;;;5073318;28;20466;-60
2021/01/12 12:26:18;;;;;;;4.67;1.33;;;6.00;1.00;;;;;;5073357;28;20438;-60
2021/01/12 12:28:44;;;;;;;2.77;1.20;;;6.10;1.00;;;;;;5073299;28;20899;-61
2021/01/12 12:31:12;;;;;;;5.10;1.13;;;6.20;1.00;;;;;;5073496;28;20260;-61
2021/01/12 12:33:38;;;;;;;6.43;0.88;;;6.20;99.90;;;;;;5073498;28;20803;-60
2021/01/12 12:36:09;;;;;;;3.60;2.25;;;6.10;99.90;;;;;;5073206;28;20185;-59
2021/01/12 12:38:38;;;;;;;2.45;1.20;;;6.20;99.90;;;;;;5073065;28;20291;-59
2021/01/12 12:41:11;;;;;;;3.42;1.00;;;6.30;99.90;;;;;;5073374;28;20180;-60
2021/01/12 12:43:38;;;;;;;3.22;0.93;;;6.40;1.00;;;;;;5072839;28;20200;-59
2021/01/12 12:46:03;;;;;;;1.75;0.60;;;6.40;25.40;;;;;;5073436;28;20687;-58
2021/01/12 12:48:29;;;;;;;2.97;0.93;;;6.40;1.00;;;;;;5073282;28;20200;-59
2021/01/12 12:50:55;;;;;;;2.63;1.20;;;6.50;1.00;;;;;;5073371;28;20888;-59
2021/01/12 12:53:21;;;;;;;4.37;0.80;;;6.50;1.00;;;;;;5073113;28;20181;-62
2021/01/12 12:55:47;;;;;;;2.78;0.75;;;6.70;1.00;;;;;;5071390;28;20438;-62
2021/01/12 12:58:13;;;;;;;3.03;0.83;;;6.60;1.00;;;;;;5072557;28;20189;-61
2021/01/12 13:00:39;;;;;;;3.63;1.20;;;6.70;1.00;;;;;;5073161;28;20914;-63